sensor_id;sensor_type;location;lat;lon;timestamp;P1;durP1;ratioP1;P2;durP2;ratioP2
5742;SDS011;2896;53.500;10.020;2023-05-16T00:01:43;2.70;;;2.60;;
5742;SDS011;2896;53.500;10.020;2023-05-16T00:04:09;5.07;;;3.20;;
5742;SDS011;2896;53.500;10.020;2023-05-16T00:06:36;4.13;;;3.10;;
5742;SDS011;2896;53.500;10.020;2023-05-16T00:09:04;3.20;;;2.90;;
5742;SDS011;2896;53.500;10.020;2023-05-16T00:11:31;3.07;;;2.87;;
5742;SDS011;2896;53.500;10.020;2023-05-16T00:13:57;2.70;;;2.50;;
5742;SDS011;2896;53.500;10.020;2023-05-16T00:16:25;4.47;;;3.13;;
5742;SDS011;2896;53.500;10.020;2023-05-16T00:18:54;2.83;;;2.57;;
5742;SDS011;2896;53.500;10.020;2023-05-16T00:21:21;3.83;;;2.60;;
5742;SDS011;2896;53.500;10.020;2023-05-16T00:23:49;7.17;;;3.00;;
5742;SDS011;2896;53.500;10.020;2023-05-16T00:26:18;4.53;;;3.10;;
5742;SDS011;2896;53.500;10.020;2023-05-16T00:28:44;2.80;;;2.60;;
5742;SDS011;2896;53.500;10.020;2023-05-16T00:31:11;5.97;;;3.53;;
5742;SDS011;2896;53.500;10.020;2023-05-16T00:33:38;6.53;;;2.80;;
5742;SDS011;2896;53.500;10.020;2023-05-16T00:36:04;10.13;;;2.70;;
5742;SDS011;2896;53.500;10.020;2023-05-16T00:38:31;8.00;;;3.33;;
5742;SDS011;2896;53.500;10.020;2023-05-16T00:40:58;4.07;;;3.33;;
5742;SDS011;2896;53.500;10.020;2023-05-16T00:43:26;8.30;;;3.20;;
5742;SDS011;2896;53.500;10.020;2023-05-16T00:45:53;5.83;;;3.80;;
5742;SDS011;2896;53.500;10.020;2023-05-16T00:48:21;3.17;;;2.97;;
5742;SDS011;2896;53.500;10.020;2023-05-16T00:50:48;4.33;;;3.57;;
5742;SDS011;2896;53.500;10.020;2023-05-16T00:53:16;5.83;;;3.50;;
5742;SDS011;2896;53.500;10.020;2023-05-16T00:55:43;4.00;;;3.60;;
5742;SDS011;2896;53.500;10.020;2023-05-16T00:58:10;4.37;;;3.97;;
5742;SDS011;2896;53.500;10.020;2023-05-16T01:00:39;10.37;;;4.37;;
5742;SDS011;2896;53.500;10.020;2023-05-16T01:03:06;4.57;;;4.13;;
5742;SDS011;2896;53.500;10.020;2023-05-16T01:05:33;4.53;;;3.27;;
5742;SDS011;2896;53.500;10.020;2023-05-16T01:08:00;5.30;;;4.20;;
5742;SDS011;2896;53.500;10.020;2023-05-16T01:10:26;4.90;;;4.33;;
5742;SDS011;2896;53.500;10.020;2023-05-16T01:13:04;8.80;;;3.60;;
5742;SDS011;2896;53.500;10.020;2023-05-16T01:15:38;9.60;;;2.93;;
5742;SDS011;2896;53.500;10.020;2023-05-16T01:18:11;3.67;;;3.37;;
5742;SDS011;2896;53.500;10.020;2023-05-16T01:20:46;5.90;;;3.67;;
5742;SDS011;2896;53.500;10.020;2023-05-16T01:23:18;3.57;;;2.97;;
5742;SDS011;2896;53.500;10.020;2023-05-16T01:25:55;8.10;;;3.17;;
5742;SDS011;2896;53.500;10.020;2023-05-16T01:28:29;5.33;;;3.10;;
5742;SDS011;2896;53.500;10.020;2023-05-16T01:30:56;5.23;;;2.90;;
5742;SDS011;2896;53.500;10.020;2023-05-16T01:33:22;4.67;;;3.03;;
5742;SDS011;2896;53.500;10.020;2023-05-16T01:35:52;3.83;;;2.50;;
5742;SDS011;2896;53.500;10.020;2023-05-16T01:38:24;4.27;;;3.40;;
5742;SDS011;2896;53.500;10.020;2023-05-16T01:40:52;7.43;;;3.50;;
5742;SDS011;2896;53.500;10.020;2023-05-16T01:43:24;6.90;;;3.90;;
5742;SDS011;2896;53.500;10.020;2023-05-16T01:46:01;5.70;;;4.67;;
5742;SDS011;2896;53.500;10.020;2023-05-16T01:48:34;7.73;;;4.30;;
5742;SDS011;2896;53.500;10.020;2023-05-16T01:51:08;7.23;;;5.10;;
5742;SDS011;2896;53.500;10.020;2023-05-16T01:53:36;6.80;;;4.57;;
5742;SDS011;2896;53.500;10.020;2023-05-16T01:56:04;8.80;;;4.90;;
5742;SDS011;2896;53.500;10.020;2023-05-16T01:58:36;9.40;;;5.20;;
5742;SDS011;2896;53.500;10.020;2023-05-16T02:01:03;18.70;;;5.73;;
5742;SDS011;2896;53.500;10.020;2023-05-16T02:03:31;20.70;;;6.03;;
5742;SDS011;2896;53.500;10.020;2023-05-16T02:05:57;15.33;;;5.90;;
5742;SDS011;2896;53.500;10.020;2023-05-16T02:08:24;11.47;;;6.20;;
5742;SDS011;2896;53.500;10.020;2023-05-16T02:10:51;11.83;;;4.40;;
5742;SDS011;2896;53.500;10.020;2023-05-16T02:13:18;7.23;;;3.80;;
5742;SDS011;2896;53.500;10.020;2023-05-16T02:15:46;6.37;;;3.10;;
5742;SDS011;2896;53.500;10.020;2023-05-16T02:18:12;11.80;;;3.00;;
5742;SDS011;2896;53.500;10.020;2023-05-16T02:20:40;7.30;;;3.37;;
5742;SDS011;2896;53.500;10.020;2023-05-16T02:23:06;16.20;;;3.47;;
5742;SDS011;2896;53.500;10.020;2023-05-16T02:25:33;13.70;;;2.80;;
5742;SDS011;2896;53.500;10.020;2023-05-16T02:27:59;4.73;;;2.20;;
5742;SDS011;2896;53.500;10.020;2023-05-16T02:30:26;9.77;;;2.60;;
5742;SDS011;2896;53.500;10.020;2023-05-16T02:32:54;8.60;;;2.47;;
5742;SDS011;2896;53.500;10.020;2023-05-16T02:35:21;10.97;;;2.33;;
5742;SDS011;2896;53.500;10.020;2023-05-16T02:37:47;15.87;;;3.43;;
5742;SDS011;2896;53.500;10.020;2023-05-16T02:40:14;9.70;;;2.57;;
5742;SDS011;2896;53.500;10.020;2023-05-16T02:42:41;7.60;;;2.87;;
5742;SDS011;2896;53.500;10.020;2023-05-16T02:45:08;11.03;;;3.63;;
5742;SDS011;2896;53.500;10.020;2023-05-16T02:47:35;15.30;;;2.60;;
5742;SDS011;2896;53.500;10.020;2023-05-16T02:50:03;16.23;;;3.33;;
5742;SDS011;2896;53.500;10.020;2023-05-16T02:52:30;9.53;;;2.33;;
5742;SDS011;2896;53.500;10.020;2023-05-16T02:54:57;9.57;;;2.87;;
5742;SDS011;2896;53.500;10.020;2023-05-16T02:57:24;12.27;;;2.37;;
5742;SDS011;2896;53.500;10.020;2023-05-16T02:59:50;21.97;;;3.63;;
5742;SDS011;2896;53.500;10.020;2023-05-16T03:02:17;13.10;;;2.90;;
5742;SDS011;2896;53.500;10.020;2023-05-16T03:04:43;12.90;;;3.57;;
5742;SDS011;2896;53.500;10.020;2023-05-16T03:07:11;6.70;;;2.50;;
5742;SDS011;2896;53.500;10.020;2023-05-16T03:09:38;16.20;;;2.60;;
5742;SDS011;2896;53.500;10.020;2023-05-16T03:12:05;14.40;;;3.90;;
5742;SDS011;2896;53.500;10.020;2023-05-16T03:14:32;12.60;;;3.10;;
5742;SDS011;2896;53.500;10.020;2023-05-16T03:16:59;9.77;;;2.43;;
5742;SDS011;2896;53.500;10.020;2023-05-16T03:19:26;22.97;;;3.30;;
5742;SDS011;2896;53.500;10.020;2023-05-16T03:21:53;11.17;;;3.00;;
5742;SDS011;2896;53.500;10.020;2023-05-16T03:24:20;11.37;;;3.20;;
5742;SDS011;2896;53.500;10.020;2023-05-16T03:26:47;14.07;;;3.13;;
5742;SDS011;2896;53.500;10.020;2023-05-16T03:29:14;13.70;;;2.60;;
5742;SDS011;2896;53.500;10.020;2023-05-16T03:31:40;19.73;;;3.40;;
5742;SDS011;2896;53.500;10.020;2023-05-16T03:34:07;19.00;;;3.70;;
5742;SDS011;2896;53.500;10.020;2023-05-16T03:36:34;17.83;;;4.10;;
5742;SDS011;2896;53.500;10.020;2023-05-16T03:39:00;14.30;;;3.57;;
5742;SDS011;2896;53.500;10.020;2023-05-16T03:41:28;21.10;;;4.10;;
5742;SDS011;2896;53.500;10.020;2023-05-16T03:43:55;23.93;;;2.80;;
5742;SDS011;2896;53.500;10.020;2023-05-16T03:46:22;11.73;;;2.83;;
5742;SDS011;2896;53.500;10.020;2023-05-16T03:48:48;17.37;;;3.73;;
5742;SDS011;2896;53.500;10.020;2023-05-16T03:51:15;14.47;;;3.33;;
5742;SDS011;2896;53.500;10.020;2023-05-16T03:53:41;16.90;;;3.10;;
5742;SDS011;2896;53.500;10.020;2023-05-16T03:56:08;10.97;;;2.87;;
5742;SDS011;2896;53.500;10.020;2023-05-16T03:58:36;20.30;;;3.13;;
5742;SDS011;2896;53.500;10.020;2023-05-16T04:01:03;15.70;;;3.47;;
5742;SDS011;2896;53.500;10.020;2023-05-16T04:03:30;14.27;;;2.97;;
5742;SDS011;2896;53.500;10.020;2023-05-16T04:05:58;11.63;;;2.63;;
5742;SDS011;2896;53.500;10.020;2023-05-16T04:08:24;15.60;;;4.07;;
5742;SDS011;2896;53.500;10.020;2023-05-16T04:10:51;13.60;;;3.00;;
5742;SDS011;2896;53.500;10.020;2023-05-16T04:13:18;16.23;;;3.30;;
5742;SDS011;2896;53.500;10.020;2023-05-16T04:15:46;16.33;;;2.83;;
5742;SDS011;2896;53.500;10.020;2023-05-16T04:18:13;22.87;;;3.33;;
5742;SDS011;2896;53.500;10.020;2023-05-16T04:20:40;25.43;;;4.40;;
5742;SDS011;2896;53.500;10.020;2023-05-16T04:23:07;31.10;;;3.70;;
5742;SDS011;2896;53.500;10.020;2023-05-16T04:25:35;33.07;;;3.80;;
5742;SDS011;2896;53.500;10.020;2023-05-16T04:28:02;16.00;;;3.20;;
5742;SDS011;2896;53.500;10.020;2023-05-16T04:30:30;9.67;;;3.20;;
5742;SDS011;2896;53.500;10.020;2023-05-16T04:32:58;16.60;;;3.00;;
5742;SDS011;2896;53.500;10.020;2023-05-16T04:35:26;21.83;;;4.23;;
5742;SDS011;2896;53.500;10.020;2023-05-16T04:37:53;9.00;;;2.43;;
5742;SDS011;2896;53.500;10.020;2023-05-16T04:40:19;22.23;;;2.90;;
5742;SDS011;2896;53.500;10.020;2023-05-16T04:42:46;19.73;;;3.17;;
5742;SDS011;2896;53.500;10.020;2023-05-16T04:45:13;22.23;;;4.13;;
5742;SDS011;2896;53.500;10.020;2023-05-16T04:47:40;23.53;;;5.03;;
5742;SDS011;2896;53.500;10.020;2023-05-16T04:50:09;14.03;;;3.03;;
5742;SDS011;2896;53.500;10.020;2023-05-16T04:52:35;12.20;;;2.97;;
5742;SDS011;2896;53.500;10.020;2023-05-16T04:55:03;17.57;;;3.50;;
5742;SDS011;2896;53.500;10.020;2023-05-16T04:57:30;22.30;;;2.77;;
5742;SDS011;2896;53.500;10.020;2023-05-16T04:59:57;22.83;;;4.13;;
5742;SDS011;2896;53.500;10.020;2023-05-16T05:02:23;11.27;;;2.97;;
5742;SDS011;2896;53.500;10.020;2023-05-16T05:04:50;16.40;;;3.47;;
5742;SDS011;2896;53.500;10.020;2023-05-16T05:07:18;22.60;;;4.17;;
5742;SDS011;2896;53.500;10.020;2023-05-16T05:09:45;20.27;;;2.57;;
5742;SDS011;2896;53.500;10.020;2023-05-16T05:12:11;13.23;;;3.20;;
5742;SDS011;2896;53.500;10.020;2023-05-16T05:14:38;16.10;;;2.90;;
5742;SDS011;2896;53.500;10.020;2023-05-16T05:17:05;20.73;;;3.47;;
5742;SDS011;2896;53.500;10.020;2023-05-16T05:19:31;11.87;;;3.30;;
5742;SDS011;2896;53.500;10.020;2023-05-16T05:21:58;17.83;;;2.90;;
5742;SDS011;2896;53.500;10.020;2023-05-16T05:24:26;15.90;;;3.70;;
5742;SDS011;2896;53.500;10.020;2023-05-16T05:26:52;15.87;;;2.90;;
5742;SDS011;2896;53.500;10.020;2023-05-16T05:29:19;16.13;;;2.70;;
5742;SDS011;2896;53.500;10.020;2023-05-16T05:31:46;18.10;;;2.80;;
5742;SDS011;2896;53.500;10.020;2023-05-16T05:34:13;21.57;;;3.07;;
5742;SDS011;2896;53.500;10.020;2023-05-16T05:36:40;31.83;;;5.40;;
5742;SDS011;2896;53.500;10.020;2023-05-16T05:39:08;18.43;;;3.60;;
5742;SDS011;2896;53.500;10.020;2023-05-16T05:41:36;12.47;;;3.07;;
5742;SDS011;2896;53.500;10.020;2023-05-16T05:44:03;18.80;;;3.10;;
5742;SDS011;2896;53.500;10.020;2023-05-16T05:46:29;25.30;;;4.70;;
5742;SDS011;2896;53.500;10.020;2023-05-16T05:48:57;19.43;;;2.73;;
5742;SDS011;2896;53.500;10.020;2023-05-16T05:51:24;16.00;;;3.40;;
5742;SDS011;2896;53.500;10.020;2023-05-16T05:53:51;15.47;;;2.80;;
5742;SDS011;2896;53.500;10.020;2023-05-16T05:56:17;21.33;;;3.20;;
5742;SDS011;2896;53.500;10.020;2023-05-16T05:58:46;19.63;;;3.40;;
5742;SDS011;2896;53.500;10.020;2023-05-16T06:01:13;15.87;;;3.37;;
5742;SDS011;2896;53.500;10.020;2023-05-16T06:03:39;16.67;;;2.73;;
5742;SDS011;2896;53.500;10.020;2023-05-16T06:06:06;12.30;;;3.20;;
5742;SDS011;2896;53.500;10.020;2023-05-16T06:08:33;15.57;;;2.37;;
5742;SDS011;2896;53.500;10.020;2023-05-16T06:11:00;15.23;;;2.93;;
5742;SDS011;2896;53.500;10.020;2023-05-16T06:13:27;7.83;;;2.63;;
5742;SDS011;2896;53.500;10.020;2023-05-16T06:15:55;21.33;;;2.53;;
5742;SDS011;2896;53.500;10.020;2023-05-16T06:18:22;15.97;;;2.40;;
5742;SDS011;2896;53.500;10.020;2023-05-16T06:20:48;12.27;;;2.57;;
5742;SDS011;2896;53.500;10.020;2023-05-16T06:23:16;8.63;;;2.30;;
5742;SDS011;2896;53.500;10.020;2023-05-16T06:25:42;17.50;;;3.03;;
5742;SDS011;2896;53.500;10.020;2023-05-16T06:28:09;15.73;;;3.50;;
5742;SDS011;2896;53.500;10.020;2023-05-16T06:30:36;16.13;;;2.33;;
5742;SDS011;2896;53.500;10.020;2023-05-16T06:33:04;9.60;;;2.70;;
5742;SDS011;2896;53.500;10.020;2023-05-16T06:35:30;13.60;;;2.70;;
5742;SDS011;2896;53.500;10.020;2023-05-16T06:37:57;18.70;;;3.43;;
5742;SDS011;2896;53.500;10.020;2023-05-16T06:40:24;8.90;;;2.43;;
5742;SDS011;2896;53.500;10.020;2023-05-16T06:42:50;24.67;;;3.20;;
5742;SDS011;2896;53.500;10.020;2023-05-16T06:45:17;9.23;;;3.47;;
5742;SDS011;2896;53.500;10.020;2023-05-16T06:47:44;16.77;;;3.87;;
5742;SDS011;2896;53.500;10.020;2023-05-16T06:50:11;12.47;;;2.60;;
5742;SDS011;2896;53.500;10.020;2023-05-16T06:52:38;25.20;;;2.53;;
5742;SDS011;2896;53.500;10.020;2023-05-16T06:55:06;12.90;;;2.43;;
5742;SDS011;2896;53.500;10.020;2023-05-16T06:57:33;21.30;;;3.60;;
5742;SDS011;2896;53.500;10.020;2023-05-16T07:00:00;11.80;;;2.40;;
5742;SDS011;2896;53.500;10.020;2023-05-16T07:02:26;8.77;;;2.43;;
5742;SDS011;2896;53.500;10.020;2023-05-16T07:04:53;6.20;;;2.30;;
5742;SDS011;2896;53.500;10.020;2023-05-16T07:07:21;14.37;;;2.80;;
5742;SDS011;2896;53.500;10.020;2023-05-16T07:09:48;9.80;;;2.10;;
5742;SDS011;2896;53.500;10.020;2023-05-16T07:12:14;13.63;;;2.27;;
5742;SDS011;2896;53.500;10.020;2023-05-16T07:14:41;11.53;;;2.23;;
5742;SDS011;2896;53.500;10.020;2023-05-16T07:17:08;13.47;;;2.37;;
5742;SDS011;2896;53.500;10.020;2023-05-16T07:19:35;17.23;;;2.27;;
5742;SDS011;2896;53.500;10.020;2023-05-16T07:22:02;33.60;;;2.97;;
5742;SDS011;2896;53.500;10.020;2023-05-16T07:24:30;6.20;;;2.33;;
5742;SDS011;2896;53.500;10.020;2023-05-16T07:26:56;7.47;;;2.10;;
5742;SDS011;2896;53.500;10.020;2023-05-16T07:29:23;9.63;;;1.97;;
5742;SDS011;2896;53.500;10.020;2023-05-16T07:31:50;20.93;;;2.73;;
5742;SDS011;2896;53.500;10.020;2023-05-16T07:34:16;5.17;;;2.23;;
5742;SDS011;2896;53.500;10.020;2023-05-16T07:36:43;13.17;;;1.87;;
5742;SDS011;2896;53.500;10.020;2023-05-16T07:39:10;6.73;;;1.77;;
5742;SDS011;2896;53.500;10.020;2023-05-16T07:41:38;10.03;;;2.40;;
5742;SDS011;2896;53.500;10.020;2023-05-16T07:44:04;16.40;;;2.20;;
5742;SDS011;2896;53.500;10.020;2023-05-16T07:46:31;5.63;;;1.70;;
5742;SDS011;2896;53.500;10.020;2023-05-16T07:48:58;15.97;;;2.00;;
5742;SDS011;2896;53.500;10.020;2023-05-16T07:51:25;22.33;;;2.10;;
5742;SDS011;2896;53.500;10.020;2023-05-16T07:53:52;12.87;;;3.00;;
5742;SDS011;2896;53.500;10.020;2023-05-16T07:56:19;13.80;;;2.40;;
5742;SDS011;2896;53.500;10.020;2023-05-16T07:58:48;10.17;;;2.20;;
5742;SDS011;2896;53.500;10.020;2023-05-16T08:01:15;15.03;;;2.20;;
5742;SDS011;2896;53.500;10.020;2023-05-16T08:03:42;13.80;;;2.53;;
5742;SDS011;2896;53.500;10.020;2023-05-16T08:06:09;10.80;;;2.40;;
5742;SDS011;2896;53.500;10.020;2023-05-16T08:08:35;11.13;;;2.57;;
5742;SDS011;2896;53.500;10.020;2023-05-16T08:11:02;20.40;;;3.10;;
5742;SDS011;2896;53.500;10.020;2023-05-16T08:13:29;19.57;;;2.33;;
5742;SDS011;2896;53.500;10.020;2023-05-16T08:15:57;14.77;;;2.63;;
5742;SDS011;2896;53.500;10.020;2023-05-16T08:18:24;8.60;;;2.37;;
5742;SDS011;2896;53.500;10.020;2023-05-16T08:20:51;11.73;;;2.30;;
5742;SDS011;2896;53.500;10.020;2023-05-16T08:23:17;12.27;;;1.80;;
5742;SDS011;2896;53.500;10.020;2023-05-16T08:25:45;10.80;;;2.07;;
5742;SDS011;2896;53.500;10.020;2023-05-16T08:28:11;11.27;;;2.90;;
5742;SDS011;2896;53.500;10.020;2023-05-16T08:30:38;8.43;;;2.27;;
5742;SDS011;2896;53.500;10.020;2023-05-16T08:33:06;8.20;;;2.23;;
5742;SDS011;2896;53.500;10.020;2023-05-16T08:35:34;10.47;;;2.03;;
5742;SDS011;2896;53.500;10.020;2023-05-16T08:38:00;11.23;;;2.27;;
5742;SDS011;2896;53.500;10.020;2023-05-16T08:40:28;13.27;;;1.93;;
5742;SDS011;2896;53.500;10.020;2023-05-16T08:42:55;8.73;;;1.87;;
5742;SDS011;2896;53.500;10.020;2023-05-16T08:45:23;6.90;;;1.87;;
5742;SDS011;2896;53.500;10.020;2023-05-16T08:47:50;9.73;;;2.23;;
5742;SDS011;2896;53.500;10.020;2023-05-16T08:50:21;14.80;;;2.47;;
5742;SDS011;2896;53.500;10.020;2023-05-16T08:52:50;9.67;;;1.87;;
5742;SDS011;2896;53.500;10.020;2023-05-16T08:55:18;10.23;;;2.60;;
5742;SDS011;2896;53.500;10.020;2023-05-16T08:57:47;15.67;;;2.60;;
5742;SDS011;2896;53.500;10.020;2023-05-16T09:00:15;5.33;;;2.30;;
5742;SDS011;2896;53.500;10.020;2023-05-16T09:02:43;6.97;;;1.77;;
5742;SDS011;2896;53.500;10.020;2023-05-16T09:05:11;10.57;;;2.57;;
5742;SDS011;2896;53.500;10.020;2023-05-16T09:07:39;36.97;;;4.50;;
5742;SDS011;2896;53.500;10.020;2023-05-16T09:10:07;9.33;;;2.47;;
5742;SDS011;2896;53.500;10.020;2023-05-16T09:12:34;10.37;;;1.80;;
5742;SDS011;2896;53.500;10.020;2023-05-16T09:15:02;11.07;;;2.17;;
5742;SDS011;2896;53.500;10.020;2023-05-16T09:17:33;5.60;;;1.97;;
5742;SDS011;2896;53.500;10.020;2023-05-16T09:20:07;11.43;;;1.80;;
5742;SDS011;2896;53.500;10.020;2023-05-16T09:22:34;6.03;;;1.93;;
5742;SDS011;2896;53.500;10.020;2023-05-16T09:25:02;6.93;;;2.03;;
5742;SDS011;2896;53.500;10.020;2023-05-16T09:27:29;8.30;;;2.10;;
5742;SDS011;2896;53.500;10.020;2023-05-16T09:29:57;7.33;;;1.77;;
5742;SDS011;2896;53.500;10.020;2023-05-16T09:32:24;6.43;;;2.03;;
5742;SDS011;2896;53.500;10.020;2023-05-16T09:34:52;13.67;;;2.60;;
5742;SDS011;2896;53.500;10.020;2023-05-16T09:37:21;8.77;;;2.73;;
5742;SDS011;2896;53.500;10.020;2023-05-16T09:39:49;8.47;;;2.00;;
5742;SDS011;2896;53.500;10.020;2023-05-16T09:42:18;5.77;;;1.53;;
5742;SDS011;2896;53.500;10.020;2023-05-16T09:44:47;12.60;;;2.40;;
5742;SDS011;2896;53.500;10.020;2023-05-16T09:47:14;11.60;;;1.87;;
5742;SDS011;2896;53.500;10.020;2023-05-16T09:49:42;5.53;;;1.77;;
5742;SDS011;2896;53.500;10.020;2023-05-16T09:52:09;8.30;;;2.13;;
5742;SDS011;2896;53.500;10.020;2023-05-16T09:54:36;9.33;;;2.20;;
5742;SDS011;2896;53.500;10.020;2023-05-16T09:57:02;7.20;;;2.20;;
5742;SDS011;2896;53.500;10.020;2023-05-16T09:59:31;12.90;;;2.20;;
5742;SDS011;2896;53.500;10.020;2023-05-16T10:02:01;11.57;;;1.30;;
5742;SDS011;2896;53.500;10.020;2023-05-16T10:04:30;12.87;;;1.53;;
5742;SDS011;2896;53.500;10.020;2023-05-16T10:06:58;12.13;;;2.00;;
5742;SDS011;2896;53.500;10.020;2023-05-16T10:09:27;9.27;;;2.03;;
5742;SDS011;2896;53.500;10.020;2023-05-16T10:11:56;5.07;;;1.70;;
5742;SDS011;2896;53.500;10.020;2023-05-16T10:14:27;20.47;;;2.80;;
5742;SDS011;2896;53.500;10.020;2023-05-16T10:16:57;17.87;;;3.23;;
5742;SDS011;2896;53.500;10.020;2023-05-16T10:19:24;4.90;;;1.70;;
5742;SDS011;2896;53.500;10.020;2023-05-16T10:21:52;10.87;;;2.17;;
5742;SDS011;2896;53.500;10.020;2023-05-16T10:24:25;13.83;;;2.47;;
5742;SDS011;2896;53.500;10.020;2023-05-16T10:26:55;7.60;;;1.80;;
5742;SDS011;2896;53.500;10.020;2023-05-16T10:29:22;8.80;;;2.33;;
5742;SDS011;2896;53.500;10.020;2023-05-16T10:31:50;14.87;;;1.63;;
5742;SDS011;2896;53.500;10.020;2023-05-16T10:34:19;10.40;;;2.20;;
5742;SDS011;2896;53.500;10.020;2023-05-16T10:36:46;7.90;;;2.30;;
5742;SDS011;2896;53.500;10.020;2023-05-16T10:39:13;7.20;;;2.50;;
5742;SDS011;2896;53.500;10.020;2023-05-16T10:41:40;17.07;;;2.90;;
5742;SDS011;2896;53.500;10.020;2023-05-16T10:44:11;4.50;;;1.50;;
5742;SDS011;2896;53.500;10.020;2023-05-16T10:46:40;10.87;;;2.50;;
5742;SDS011;2896;53.500;10.020;2023-05-16T10:49:21;8.30;;;2.20;;
5742;SDS011;2896;53.500;10.020;2023-05-16T10:52:01;7.27;;;2.20;;
5742;SDS011;2896;53.500;10.020;2023-05-16T10:54:33;8.90;;;2.53;;
5742;SDS011;2896;53.500;10.020;2023-05-16T10:57:08;10.20;;;2.70;;
5742;SDS011;2896;53.500;10.020;2023-05-16T10:59:40;12.57;;;2.80;;
5742;SDS011;2896;53.500;10.020;2023-05-16T11:02:24;11.00;;;2.97;;
5742;SDS011;2896;53.500;10.020;2023-05-16T11:04:55;12.60;;;2.33;;
5742;SDS011;2896;53.500;10.020;2023-05-16T11:07:24;6.57;;;2.00;;
5742;SDS011;2896;53.500;10.020;2023-05-16T11:09:52;9.20;;;1.87;;
5742;SDS011;2896;53.500;10.020;2023-05-16T11:12:35;4.00;;;2.40;;
5742;SDS011;2896;53.500;10.020;2023-05-16T11:15:09;8.20;;;2.20;;
5742;SDS011;2896;53.500;10.020;2023-05-16T11:17:43;9.00;;;2.37;;
5742;SDS011;2896;53.500;10.020;2023-05-16T11:20:23;7.33;;;1.63;;
5742;SDS011;2896;53.500;10.020;2023-05-16T11:22:51;6.43;;;1.60;;
5742;SDS011;2896;53.500;10.020;2023-05-16T11:25:50;9.27;;;2.30;;
5742;SDS011;2896;53.500;10.020;2023-05-16T11:28:18;5.93;;;1.70;;
5742;SDS011;2896;53.500;10.020;2023-05-16T11:30:46;3.97;;;1.97;;
5742;SDS011;2896;53.500;10.020;2023-05-16T11:33:14;11.73;;;1.67;;
5742;SDS011;2896;53.500;10.020;2023-05-16T11:35:41;6.23;;;1.87;;
5742;SDS011;2896;53.500;10.020;2023-05-16T11:38:11;12.83;;;2.10;;
5742;SDS011;2896;53.500;10.020;2023-05-16T11:40:42;7.43;;;1.90;;
5742;SDS011;2896;53.500;10.020;2023-05-16T11:43:09;18.43;;;1.80;;
5742;SDS011;2896;53.500;10.020;2023-05-16T11:45:37;11.70;;;2.57;;
5742;SDS011;2896;53.500;10.020;2023-05-16T11:48:04;6.83;;;2.50;;
5742;SDS011;2896;53.500;10.020;2023-05-16T11:50:32;12.73;;;2.07;;
5742;SDS011;2896;53.500;10.020;2023-05-16T11:52:59;8.57;;;2.10;;
5742;SDS011;2896;53.500;10.020;2023-05-16T11:55:27;2.70;;;1.57;;
5742;SDS011;2896;53.500;10.020;2023-05-16T11:57:57;4.00;;;1.33;;
5742;SDS011;2896;53.500;10.020;2023-05-16T12:00:24;3.50;;;1.03;;
5742;SDS011;2896;53.500;10.020;2023-05-16T12:02:53;6.43;;;1.10;;
5742;SDS011;2896;53.500;10.020;2023-05-16T12:05:25;12.50;;;1.63;;
5742;SDS011;2896;53.500;10.020;2023-05-16T12:07:52;6.63;;;1.90;;
5742;SDS011;2896;53.500;10.020;2023-05-16T12:10:19;6.57;;;1.50;;
5742;SDS011;2896;53.500;10.020;2023-05-16T12:12:46;1.73;;;1.20;;
5742;SDS011;2896;53.500;10.020;2023-05-16T12:15:17;8.60;;;1.70;;
5742;SDS011;2896;53.500;10.020;2023-05-16T12:17:44;12.10;;;2.20;;
5742;SDS011;2896;53.500;10.020;2023-05-16T12:20:11;12.47;;;2.13;;
5742;SDS011;2896;53.500;10.020;2023-05-16T12:22:40;20.77;;;2.60;;
5742;SDS011;2896;53.500;10.020;2023-05-16T12:25:20;12.63;;;3.20;;
5742;SDS011;2896;53.500;10.020;2023-05-16T12:27:48;8.93;;;1.87;;
5742;SDS011;2896;53.500;10.020;2023-05-16T12:30:17;8.17;;;1.60;;
5742;SDS011;2896;53.500;10.020;2023-05-16T12:32:43;5.30;;;1.20;;
5742;SDS011;2896;53.500;10.020;2023-05-16T12:35:11;8.83;;;2.00;;
5742;SDS011;2896;53.500;10.020;2023-05-16T12:37:38;7.00;;;1.70;;
5742;SDS011;2896;53.500;10.020;2023-05-16T12:40:05;7.33;;;1.90;;
5742;SDS011;2896;53.500;10.020;2023-05-16T12:42:34;5.97;;;1.40;;
5742;SDS011;2896;53.500;10.020;2023-05-16T12:45:02;13.57;;;2.07;;
5742;SDS011;2896;53.500;10.020;2023-05-16T12:47:35;5.77;;;2.23;;
5742;SDS011;2896;53.500;10.020;2023-05-16T12:50:07;9.07;;;1.87;;
5742;SDS011;2896;53.500;10.020;2023-05-16T12:52:35;9.27;;;2.10;;
5742;SDS011;2896;53.500;10.020;2023-05-16T12:55:02;6.13;;;1.83;;
5742;SDS011;2896;53.500;10.020;2023-05-16T12:57:29;5.53;;;1.90;;
5742;SDS011;2896;53.500;10.020;2023-05-16T12:59:56;5.30;;;1.77;;
5742;SDS011;2896;53.500;10.020;2023-05-16T13:02:23;15.60;;;2.97;;
5742;SDS011;2896;53.500;10.020;2023-05-16T13:04:51;10.13;;;1.67;;
5742;SDS011;2896;53.500;10.020;2023-05-16T13:07:18;5.60;;;1.30;;
5742;SDS011;2896;53.500;10.020;2023-05-16T13:09:44;7.23;;;1.70;;
5742;SDS011;2896;53.500;10.020;2023-05-16T13:12:11;7.87;;;2.07;;
5742;SDS011;2896;53.500;10.020;2023-05-16T13:14:39;3.40;;;1.53;;
5742;SDS011;2896;53.500;10.020;2023-05-16T13:17:07;8.33;;;1.80;;
5742;SDS011;2896;53.500;10.020;2023-05-16T13:19:35;4.30;;;1.97;;
5742;SDS011;2896;53.500;10.020;2023-05-16T13:22:03;7.60;;;2.10;;
5742;SDS011;2896;53.500;10.020;2023-05-16T13:24:30;4.53;;;2.00;;
5742;SDS011;2896;53.500;10.020;2023-05-16T13:26:57;3.67;;;1.47;;
5742;SDS011;2896;53.500;10.020;2023-05-16T13:29:24;14.50;;;1.87;;
5742;SDS011;2896;53.500;10.020;2023-05-16T13:31:51;6.23;;;1.47;;
5742;SDS011;2896;53.500;10.020;2023-05-16T13:34:17;8.87;;;3.20;;
5742;SDS011;2896;53.500;10.020;2023-05-16T13:36:44;6.60;;;1.97;;
5742;SDS011;2896;53.500;10.020;2023-05-16T13:39:13;11.90;;;2.07;;
5742;SDS011;2896;53.500;10.020;2023-05-16T13:41:40;7.00;;;2.33;;
5742;SDS011;2896;53.500;10.020;2023-05-16T13:44:06;9.30;;;1.70;;
5742;SDS011;2896;53.500;10.020;2023-05-16T13:46:33;9.17;;;2.03;;
5742;SDS011;2896;53.500;10.020;2023-05-16T13:49:00;15.43;;;2.20;;
5742;SDS011;2896;53.500;10.020;2023-05-16T13:51:27;3.47;;;1.77;;
5742;SDS011;2896;53.500;10.020;2023-05-16T13:53:53;5.27;;;1.27;;
5742;SDS011;2896;53.500;10.020;2023-05-16T13:56:22;5.23;;;1.90;;
5742;SDS011;2896;53.500;10.020;2023-05-16T13:58:49;5.03;;;1.30;;
5742;SDS011;2896;53.500;10.020;2023-05-16T14:01:15;4.00;;;1.77;;
5742;SDS011;2896;53.500;10.020;2023-05-16T14:03:42;6.33;;;1.50;;
5742;SDS011;2896;53.500;10.020;2023-05-16T14:06:09;2.90;;;1.17;;
5742;SDS011;2896;53.500;10.020;2023-05-16T14:08:35;6.17;;;1.40;;
5742;SDS011;2896;53.500;10.020;2023-05-16T14:11:02;16.10;;;1.70;;
5742;SDS011;2896;53.500;10.020;2023-05-16T14:13:31;8.60;;;1.57;;
5742;SDS011;2896;53.500;10.020;2023-05-16T14:15:58;5.30;;;1.40;;
5742;SDS011;2896;53.500;10.020;2023-05-16T14:18:26;1.40;;;1.30;;
5742;SDS011;2896;53.500;10.020;2023-05-16T14:20:52;9.33;;;1.93;;
5742;SDS011;2896;53.500;10.020;2023-05-16T14:23:20;1.90;;;1.23;;
5742;SDS011;2896;53.500;10.020;2023-05-16T14:25:47;5.43;;;1.30;;
5742;SDS011;2896;53.500;10.020;2023-05-16T14:28:13;2.17;;;1.30;;
5742;SDS011;2896;53.500;10.020;2023-05-16T14:30:42;4.63;;;1.50;;
5742;SDS011;2896;53.500;10.020;2023-05-16T14:33:08;4.43;;;1.40;;
5742;SDS011;2896;53.500;10.020;2023-05-16T14:35:35;5.63;;;1.50;;
5742;SDS011;2896;53.500;10.020;2023-05-16T14:38:02;3.80;;;1.87;;
5742;SDS011;2896;53.500;10.020;2023-05-16T14:40:29;4.53;;;1.30;;
5742;SDS011;2896;53.500;10.020;2023-05-16T14:42:56;11.27;;;1.67;;
5742;SDS011;2896;53.500;10.020;2023-05-16T14:45:23;11.30;;;1.67;;
5742;SDS011;2896;53.500;10.020;2023-05-16T14:47:50;5.23;;;1.73;;
5742;SDS011;2896;53.500;10.020;2023-05-16T14:50:17;5.10;;;1.80;;
5742;SDS011;2896;53.500;10.020;2023-05-16T14:52:44;8.63;;;1.70;;
5742;SDS011;2896;53.500;10.020;2023-05-16T14:55:10;4.87;;;1.77;;
5742;SDS011;2896;53.500;10.020;2023-05-16T14:57:37;4.00;;;1.40;;
5742;SDS011;2896;53.500;10.020;2023-05-16T15:00:04;7.83;;;1.70;;